sensor_id;sensor_type;location;lat;lon;timestamp;P1;durP1;ratioP1;P2;durP2;ratioP2
44588;SDS011;30298;52.562;13.414;2022-12-18T00:02:01;43.20;;;13.87;;
44588;SDS011;30298;52.562;13.414;2022-12-18T00:04:27;47.28;;;15.48;;
44588;SDS011;30298;52.562;13.414;2022-12-18T00:06:52;44.03;;;15.52;;
44588;SDS011;30298;52.562;13.414;2022-12-18T00:09:18;40.13;;;14.63;;
44588;SDS011;30298;52.562;13.414;2022-12-18T00:11:43;49.43;;;17.87;;
44588;SDS011;30298;52.562;13.414;2022-12-18T00:14:09;45.80;;;16.17;;
44588;SDS011;30298;52.562;13.414;2022-12-18T00:16:35;47.03;;;16.38;;
44588;SDS011;30298;52.562;13.414;2022-12-18T00:21:27;45.40;;;15.77;;
44588;SDS011;30298;52.562;13.414;2022-12-18T00:23:54;45.97;;;16.52;;
44588;SDS011;30298;52.562;13.414;2022-12-18T00:26:20;41.25;;;15.10;;
44588;SDS011;30298;52.562;13.414;2022-12-18T00:31:14;48.15;;;15.40;;
44588;SDS011;30298;52.562;13.414;2022-12-18T00:33:40;51.20;;;17.08;;
44588;SDS011;30298;52.562;13.414;2022-12-18T00:38:37;50.35;;;16.10;;
44588;SDS011;30298;52.562;13.414;2022-12-18T00:41:02;49.78;;;16.23;;
44588;SDS011;30298;52.562;13.414;2022-12-18T00:43:28;45.95;;;16.63;;
44588;SDS011;30298;52.562;13.414;2022-12-18T00:45:53;49.43;;;18.03;;
44588;SDS011;30298;52.562;13.414;2022-12-18T00:48:18;54.17;;;17.40;;
44588;SDS011;30298;52.562;13.414;2022-12-18T00:50:44;41.67;;;14.67;;
44588;SDS011;30298;52.562;13.414;2022-12-18T00:53:09;44.42;;;18.27;;
44588;SDS011;30298;52.562;13.414;2022-12-18T00:55:34;41.77;;;15.70;;
44588;SDS011;30298;52.562;13.414;2022-12-18T00:58:00;40.37;;;15.43;;
44588;SDS011;30298;52.562;13.414;2022-12-18T01:00:25;48.43;;;16.80;;
44588;SDS011;30298;52.562;13.414;2022-12-18T01:02:50;41.67;;;14.87;;
44588;SDS011;30298;52.562;13.414;2022-12-18T01:05:16;42.58;;;15.27;;
44588;SDS011;30298;52.562;13.414;2022-12-18T01:07:41;40.23;;;15.97;;
44588;SDS011;30298;52.562;13.414;2022-12-18T01:10:07;44.67;;;16.20;;
44588;SDS011;30298;52.562;13.414;2022-12-18T01:12:33;37.75;;;14.43;;
44588;SDS011;30298;52.562;13.414;2022-12-18T01:14:58;39.92;;;14.82;;
44588;SDS011;30298;52.562;13.414;2022-12-18T01:17:24;40.13;;;14.23;;
44588;SDS011;30298;52.562;13.414;2022-12-18T01:19:49;37.17;;;13.50;;
44588;SDS011;30298;52.562;13.414;2022-12-18T01:22:14;42.85;;;14.95;;
44588;SDS011;30298;52.562;13.414;2022-12-18T01:24:40;44.28;;;17.58;;
44588;SDS011;30298;52.562;13.414;2022-12-18T01:27:05;38.93;;;15.20;;
44588;SDS011;30298;52.562;13.414;2022-12-18T01:29:31;43.08;;;14.35;;
44588;SDS011;30298;52.562;13.414;2022-12-18T01:31:56;38.65;;;15.40;;
44588;SDS011;30298;52.562;13.414;2022-12-18T01:34:22;40.53;;;15.23;;
44588;SDS011;30298;52.562;13.414;2022-12-18T01:36:47;42.08;;;15.95;;
44588;SDS011;30298;52.562;13.414;2022-12-18T01:39:13;39.90;;;15.32;;
44588;SDS011;30298;52.562;13.414;2022-12-18T01:41:39;39.28;;;14.75;;
44588;SDS011;30298;52.562;13.414;2022-12-18T01:47:07;39.63;;;13.88;;
44588;SDS011;30298;52.562;13.414;2022-12-18T01:49:32;38.40;;;14.97;;
44588;SDS011;30298;52.562;13.414;2022-12-18T01:51:58;41.47;;;15.27;;
44588;SDS011;30298;52.562;13.414;2022-12-18T01:54:23;44.83;;;15.63;;
44588;SDS011;30298;52.562;13.414;2022-12-18T01:56:48;41.47;;;14.83;;
44588;SDS011;30298;52.562;13.414;2022-12-18T01:59:13;40.07;;;15.23;;
44588;SDS011;30298;52.562;13.414;2022-12-18T02:01:39;42.17;;;16.10;;
44588;SDS011;30298;52.562;13.414;2022-12-18T02:04:23;42.07;;;14.10;;
44588;SDS011;30298;52.562;13.414;2022-12-18T02:06:50;38.58;;;14.80;;
44588;SDS011;30298;52.562;13.414;2022-12-18T02:09:19;40.13;;;15.57;;
44588;SDS011;30298;52.562;13.414;2022-12-18T02:11:48;42.20;;;14.95;;
44588;SDS011;30298;52.562;13.414;2022-12-18T02:16:43;45.97;;;16.43;;
44588;SDS011;30298;52.562;13.414;2022-12-18T02:19:28;36.72;;;14.20;;
44588;SDS011;30298;52.562;13.414;2022-12-18T02:22:04;38.60;;;15.07;;
44588;SDS011;30298;52.562;13.414;2022-12-18T02:27:01;38.00;;;14.93;;
44588;SDS011;30298;52.562;13.414;2022-12-18T02:32:19;46.42;;;15.40;;
44588;SDS011;30298;52.562;13.414;2022-12-18T02:34:46;44.00;;;15.55;;
44588;SDS011;30298;52.562;13.414;2022-12-18T02:37:14;42.45;;;14.65;;
44588;SDS011;30298;52.562;13.414;2022-12-18T02:39:41;41.53;;;15.50;;
44588;SDS011;30298;52.562;13.414;2022-12-18T02:42:07;49.00;;;17.73;;
44588;SDS011;30298;52.562;13.414;2022-12-18T02:44:54;47.05;;;16.05;;
44588;SDS011;30298;52.562;13.414;2022-12-18T02:47:19;44.78;;;15.38;;
44588;SDS011;30298;52.562;13.414;2022-12-18T02:52:34;53.00;;;17.60;;
44588;SDS011;30298;52.562;13.414;2022-12-18T02:55:16;48.05;;;17.85;;
44588;SDS011;30298;52.562;13.414;2022-12-18T02:57:48;55.53;;;19.48;;
44588;SDS011;30298;52.562;13.414;2022-12-18T03:00:21;59.20;;;19.05;;
44588;SDS011;30298;52.562;13.414;2022-12-18T03:02:58;53.00;;;17.75;;
44588;SDS011;30298;52.562;13.414;2022-12-18T03:05:40;58.20;;;20.27;;
44588;SDS011;30298;52.562;13.414;2022-12-18T03:08:41;56.83;;;19.83;;
44588;SDS011;30298;52.562;13.414;2022-12-18T03:11:02;56.63;;;20.15;;
44588;SDS011;30298;52.562;13.414;2022-12-18T03:13:29;52.30;;;18.20;;
44588;SDS011;30298;52.562;13.414;2022-12-18T03:15:57;49.65;;;19.23;;
44588;SDS011;30298;52.562;13.414;2022-12-18T03:18:31;50.95;;;17.67;;
44588;SDS011;30298;52.562;13.414;2022-12-18T03:20:58;52.25;;;18.80;;
44588;SDS011;30298;52.562;13.414;2022-12-18T03:23:25;54.25;;;20.70;;
44588;SDS011;30298;52.562;13.414;2022-12-18T03:25:54;64.20;;;21.33;;
44588;SDS011;30298;52.562;13.414;2022-12-18T03:28:20;71.80;;;20.10;;
44588;SDS011;30298;52.562;13.414;2022-12-18T03:30:47;61.95;;;21.60;;
44588;SDS011;30298;52.562;13.414;2022-12-18T03:33:20;72.90;;;22.40;;
44588;SDS011;30298;52.562;13.414;2022-12-18T03:35:46;66.82;;;21.63;;
44588;SDS011;30298;52.562;13.414;2022-12-18T03:38:12;78.33;;;24.00;;
44588;SDS011;30298;52.562;13.414;2022-12-18T03:46:03;70.70;;;21.83;;
44588;SDS011;30298;52.562;13.414;2022-12-18T03:48:33;75.20;;;21.30;;
44588;SDS011;30298;52.562;13.414;2022-12-18T03:51:05;60.38;;;19.73;;
44588;SDS011;30298;52.562;13.414;2022-12-18T03:56:15;61.30;;;22.13;;
44588;SDS011;30298;52.562;13.414;2022-12-18T03:58:41;55.97;;;19.02;;
44588;SDS011;30298;52.562;13.414;2022-12-18T04:01:07;56.38;;;17.95;;
44588;SDS011;30298;52.562;13.414;2022-12-18T04:03:33;52.80;;;17.75;;
44588;SDS011;30298;52.562;13.414;2022-12-18T04:05:59;51.17;;;18.92;;
44588;SDS011;30298;52.562;13.414;2022-12-18T04:08:25;50.97;;;17.10;;
44588;SDS011;30298;52.562;13.414;2022-12-18T04:10:50;45.28;;;16.02;;
44588;SDS011;30298;52.562;13.414;2022-12-18T04:13:29;47.50;;;16.98;;
44588;SDS011;30298;52.562;13.414;2022-12-18T04:15:54;47.38;;;16.50;;
44588;SDS011;30298;52.562;13.414;2022-12-18T04:18:19;51.07;;;17.47;;
44588;SDS011;30298;52.562;13.414;2022-12-18T04:20:45;53.33;;;17.03;;
44588;SDS011;30298;52.562;13.414;2022-12-18T04:23:10;45.25;;;15.73;;
44588;SDS011;30298;52.562;13.414;2022-12-18T04:25:35;53.27;;;17.97;;
44588;SDS011;30298;52.562;13.414;2022-12-18T04:28:01;44.93;;;15.30;;
44588;SDS011;30298;52.562;13.414;2022-12-18T04:30:26;47.80;;;16.83;;
44588;SDS011;30298;52.562;13.414;2022-12-18T04:32:51;47.23;;;17.30;;
44588;SDS011;30298;52.562;13.414;2022-12-18T04:35:16;44.07;;;16.20;;
44588;SDS011;30298;52.562;13.414;2022-12-18T04:37:42;42.47;;;14.97;;
44588;SDS011;30298;52.562;13.414;2022-12-18T04:40:07;44.40;;;16.33;;
44588;SDS011;30298;52.562;13.414;2022-12-18T04:42:33;48.60;;;16.23;;
44588;SDS011;30298;52.562;13.414;2022-12-18T04:44:58;46.25;;;14.18;;
44588;SDS011;30298;52.562;13.414;2022-12-18T04:47:24;43.77;;;16.07;;
44588;SDS011;30298;52.562;13.414;2022-12-18T04:49:49;41.63;;;14.93;;
44588;SDS011;30298;52.562;13.414;2022-12-18T04:52:14;39.63;;;14.93;;
44588;SDS011;30298;52.562;13.414;2022-12-18T04:54:39;42.70;;;15.13;;
44588;SDS011;30298;52.562;13.414;2022-12-18T04:57:05;44.37;;;16.10;;
44588;SDS011;30298;52.562;13.414;2022-12-18T04:59:30;46.00;;;16.27;;
44588;SDS011;30298;52.562;13.414;2022-12-18T05:01:55;40.53;;;14.13;;
44588;SDS011;30298;52.562;13.414;2022-12-18T05:04:21;50.47;;;16.10;;
44588;SDS011;30298;52.562;13.414;2022-12-18T05:06:46;42.63;;;16.33;;
44588;SDS011;30298;52.562;13.414;2022-12-18T05:09:11;43.43;;;17.00;;
44588;SDS011;30298;52.562;13.414;2022-12-18T05:11:36;41.47;;;15.77;;
44588;SDS011;30298;52.562;13.414;2022-12-18T05:14:02;43.57;;;16.23;;
44588;SDS011;30298;52.562;13.414;2022-12-18T05:16:27;44.28;;;16.40;;
44588;SDS011;30298;52.562;13.414;2022-12-18T05:18:52;42.33;;;15.33;;
44588;SDS011;30298;52.562;13.414;2022-12-18T05:21:18;46.95;;;16.05;;
44588;SDS011;30298;52.562;13.414;2022-12-18T05:23:43;41.67;;;14.30;;
44588;SDS011;30298;52.562;13.414;2022-12-18T05:26:08;40.30;;;15.83;;
44588;SDS011;30298;52.562;13.414;2022-12-18T05:28:36;48.45;;;17.33;;
44588;SDS011;30298;52.562;13.414;2022-12-18T05:31:02;45.07;;;15.50;;
44588;SDS011;30298;52.562;13.414;2022-12-18T05:36:02;43.50;;;16.23;;
44588;SDS011;30298;52.562;13.414;2022-12-18T05:38:28;43.92;;;14.95;;
44588;SDS011;30298;52.562;13.414;2022-12-18T05:40:54;40.65;;;15.40;;
44588;SDS011;30298;52.562;13.414;2022-12-18T05:43:19;43.72;;;15.70;;
44588;SDS011;30298;52.562;13.414;2022-12-18T05:45:46;42.63;;;13.95;;
44588;SDS011;30298;52.562;13.414;2022-12-18T05:48:12;40.97;;;14.30;;
44588;SDS011;30298;52.562;13.414;2022-12-18T05:50:37;39.83;;;14.03;;
44588;SDS011;30298;52.562;13.414;2022-12-18T05:53:03;39.70;;;14.48;;
44588;SDS011;30298;52.562;13.414;2022-12-18T05:55:29;44.42;;;14.25;;
44588;SDS011;30298;52.562;13.414;2022-12-18T05:57:57;42.92;;;14.90;;
44588;SDS011;30298;52.562;13.414;2022-12-18T06:00:22;43.47;;;14.30;;
44588;SDS011;30298;52.562;13.414;2022-12-18T06:02:47;44.03;;;15.63;;
44588;SDS011;30298;52.562;13.414;2022-12-18T06:05:13;36.17;;;12.70;;
44588;SDS011;30298;52.562;13.414;2022-12-18T06:07:38;46.43;;;14.77;;
44588;SDS011;30298;52.562;13.414;2022-12-18T06:10:03;50.63;;;16.27;;
44588;SDS011;30298;52.562;13.414;2022-12-18T06:12:29;39.55;;;13.98;;
44588;SDS011;30298;52.562;13.414;2022-12-18T06:14:54;46.22;;;15.48;;
44588;SDS011;30298;52.562;13.414;2022-12-18T06:17:20;47.13;;;16.85;;
44588;SDS011;30298;52.562;13.414;2022-12-18T06:19:45;46.20;;;15.53;;
44588;SDS011;30298;52.562;13.414;2022-12-18T06:22:10;59.73;;;18.07;;
44588;SDS011;30298;52.562;13.414;2022-12-18T06:24:36;50.03;;;17.00;;
44588;SDS011;30298;52.562;13.414;2022-12-18T06:27:01;50.20;;;18.33;;
44588;SDS011;30298;52.562;13.414;2022-12-18T06:29:27;60.35;;;16.80;;
44588;SDS011;30298;52.562;13.414;2022-12-18T06:31:52;56.47;;;17.87;;
44588;SDS011;30298;52.562;13.414;2022-12-18T06:34:17;61.10;;;19.10;;
44588;SDS011;30298;52.562;13.414;2022-12-18T06:36:43;59.37;;;18.60;;
44588;SDS011;30298;52.562;13.414;2022-12-18T06:39:08;56.03;;;17.60;;
44588;SDS011;30298;52.562;13.414;2022-12-18T06:41:33;55.00;;;18.93;;
44588;SDS011;30298;52.562;13.414;2022-12-18T06:43:58;49.50;;;17.53;;
44588;SDS011;30298;52.562;13.414;2022-12-18T06:46:24;46.57;;;15.20;;
44588;SDS011;30298;52.562;13.414;2022-12-18T06:48:49;51.30;;;18.83;;
44588;SDS011;30298;52.562;13.414;2022-12-18T06:51:15;50.33;;;17.63;;
44588;SDS011;30298;52.562;13.414;2022-12-18T06:56:06;53.88;;;17.80;;
44588;SDS011;30298;52.562;13.414;2022-12-18T06:58:32;63.90;;;18.30;;
44588;SDS011;30298;52.562;13.414;2022-12-18T07:01:00;60.58;;;20.13;;
44588;SDS011;30298;52.562;13.414;2022-12-18T07:03:26;57.58;;;19.88;;
44588;SDS011;30298;52.562;13.414;2022-12-18T07:05:51;57.77;;;18.10;;
44588;SDS011;30298;52.562;13.414;2022-12-18T07:08:16;53.53;;;17.63;;
44588;SDS011;30298;52.562;13.414;2022-12-18T07:10:42;62.80;;;19.47;;
44588;SDS011;30298;52.562;13.414;2022-12-18T07:13:07;63.35;;;18.98;;
44588;SDS011;30298;52.562;13.414;2022-12-18T07:15:33;64.17;;;20.60;;
44588;SDS011;30298;52.562;13.414;2022-12-18T07:17:58;57.77;;;17.77;;
44588;SDS011;30298;52.562;13.414;2022-12-18T07:20:23;47.57;;;17.23;;
44588;SDS011;30298;52.562;13.414;2022-12-18T07:22:48;52.97;;;17.10;;
44588;SDS011;30298;52.562;13.414;2022-12-18T07:25:14;52.33;;;17.47;;
44588;SDS011;30298;52.562;13.414;2022-12-18T07:27:39;56.57;;;18.67;;
44588;SDS011;30298;52.562;13.414;2022-12-18T07:30:05;46.63;;;16.45;;
44588;SDS011;30298;52.562;13.414;2022-12-18T07:32:30;53.40;;;18.35;;
44588;SDS011;30298;52.562;13.414;2022-12-18T07:34:55;55.50;;;16.03;;
44588;SDS011;30298;52.562;13.414;2022-12-18T07:37:21;53.23;;;17.67;;
44588;SDS011;30298;52.562;13.414;2022-12-18T07:39:46;56.00;;;18.00;;
44588;SDS011;30298;52.562;13.414;2022-12-18T07:42:11;52.83;;;18.10;;
44588;SDS011;30298;52.562;13.414;2022-12-18T07:44:58;54.33;;;17.92;;
44588;SDS011;30298;52.562;13.414;2022-12-18T07:47:23;45.95;;;17.95;;
44588;SDS011;30298;52.562;13.414;2022-12-18T07:49:48;51.37;;;16.53;;
44588;SDS011;30298;52.562;13.414;2022-12-18T07:52:14;46.97;;;17.08;;
44588;SDS011;30298;52.562;13.414;2022-12-18T07:54:42;51.88;;;16.95;;
44588;SDS011;30298;52.562;13.414;2022-12-18T07:57:07;47.58;;;16.25;;
44588;SDS011;30298;52.562;13.414;2022-12-18T07:59:33;52.75;;;17.30;;
44588;SDS011;30298;52.562;13.414;2022-12-18T08:01:59;50.80;;;16.70;;
44588;SDS011;30298;52.562;13.414;2022-12-18T08:04:24;53.08;;;17.02;;
44588;SDS011;30298;52.562;13.414;2022-12-18T08:06:50;48.65;;;15.95;;
44588;SDS011;30298;52.562;13.414;2022-12-18T08:09:15;51.17;;;17.83;;
44588;SDS011;30298;52.562;13.414;2022-12-18T08:11:41;50.40;;;16.87;;
44588;SDS011;30298;52.562;13.414;2022-12-18T08:14:06;47.38;;;17.20;;
44588;SDS011;30298;52.562;13.414;2022-12-18T08:16:32;52.85;;;18.70;;
44588;SDS011;30298;52.562;13.414;2022-12-18T08:18:57;53.10;;;18.98;;
44588;SDS011;30298;52.562;13.414;2022-12-18T08:21:24;46.95;;;17.15;;
44588;SDS011;30298;52.562;13.414;2022-12-18T08:23:51;49.42;;;19.08;;
44588;SDS011;30298;52.562;13.414;2022-12-18T08:26:18;53.88;;;18.05;;
44588;SDS011;30298;52.562;13.414;2022-12-18T08:28:43;56.28;;;20.80;;
44588;SDS011;30298;52.562;13.414;2022-12-18T08:31:09;47.43;;;16.83;;
44588;SDS011;30298;52.562;13.414;2022-12-18T08:33:35;43.28;;;15.43;;
44588;SDS011;30298;52.562;13.414;2022-12-18T08:36:01;47.90;;;17.92;;
44588;SDS011;30298;52.562;13.414;2022-12-18T08:38:26;47.95;;;16.67;;
44588;SDS011;30298;52.562;13.414;2022-12-18T08:41:02;45.80;;;17.23;;
44588;SDS011;30298;52.562;13.414;2022-12-18T08:43:30;43.25;;;16.33;;
44588;SDS011;30298;52.562;13.414;2022-12-18T08:46:14;41.47;;;15.05;;
44588;SDS011;30298;52.562;13.414;2022-12-18T08:48:39;42.23;;;15.07;;
44588;SDS011;30298;52.562;13.414;2022-12-18T08:51:04;37.37;;;14.83;;
44588;SDS011;30298;52.562;13.414;2022-12-18T08:53:30;39.27;;;16.27;;
44588;SDS011;30298;52.562;13.414;2022-12-18T08:55:56;45.30;;;15.67;;
44588;SDS011;30298;52.562;13.414;2022-12-18T08:58:21;39.22;;;16.20;;
44588;SDS011;30298;52.562;13.414;2022-12-18T09:00:47;41.25;;;15.70;;
44588;SDS011;30298;52.562;13.414;2022-12-18T09:03:16;36.77;;;14.83;;
44588;SDS011;30298;52.562;13.414;2022-12-18T09:05:42;37.25;;;15.30;;
44588;SDS011;30298;52.562;13.414;2022-12-18T09:08:07;41.38;;;18.00;;
44588;SDS011;30298;52.562;13.414;2022-12-18T09:10:32;37.10;;;15.47;;
44588;SDS011;30298;52.562;13.414;2022-12-18T09:12:58;42.10;;;16.43;;
44588;SDS011;30298;52.562;13.414;2022-12-18T09:15:23;42.23;;;15.07;;
44588;SDS011;30298;52.562;13.414;2022-12-18T09:17:48;43.33;;;15.13;;
44588;SDS011;30298;52.562;13.414;2022-12-18T09:20:15;37.08;;;15.43;;
44588;SDS011;30298;52.562;13.414;2022-12-18T09:22:40;34.85;;;14.95;;
44588;SDS011;30298;52.562;13.414;2022-12-18T09:25:05;36.83;;;14.50;;
44588;SDS011;30298;52.562;13.414;2022-12-18T09:27:33;38.95;;;16.13;;
44588;SDS011;30298;52.562;13.414;2022-12-18T09:29:58;38.67;;;14.63;;
44588;SDS011;30298;52.562;13.414;2022-12-18T09:32:23;39.40;;;14.77;;
44588;SDS011;30298;52.562;13.414;2022-12-18T09:34:48;38.63;;;14.53;;
44588;SDS011;30298;52.562;13.414;2022-12-18T09:37:14;38.78;;;14.75;;
44588;SDS011;30298;52.562;13.414;2022-12-18T09:39:39;35.07;;;14.13;;
44588;SDS011;30298;52.562;13.414;2022-12-18T09:42:04;36.93;;;15.60;;
44588;SDS011;30298;52.562;13.414;2022-12-18T09:44:41;45.15;;;15.27;;
44588;SDS011;30298;52.562;13.414;2022-12-18T09:47:09;40.47;;;15.25;;
44588;SDS011;30298;52.562;13.414;2022-12-18T09:49:43;35.60;;;14.27;;
44588;SDS011;30298;52.562;13.414;2022-12-18T09:52:29;45.92;;;17.27;;
44588;SDS011;30298;52.562;13.414;2022-12-18T09:55:06;44.15;;;15.18;;
44588;SDS011;30298;52.562;13.414;2022-12-18T09:57:35;43.90;;;16.38;;
44588;SDS011;30298;52.562;13.414;2022-12-18T10:00:14;42.88;;;16.05;;
44588;SDS011;30298;52.562;13.414;2022-12-18T10:02:40;45.53;;;15.52;;
44588;SDS011;30298;52.562;13.414;2022-12-18T10:07:38;47.27;;;17.63;;
44588;SDS011;30298;52.562;13.414;2022-12-18T10:10:07;37.55;;;15.00;;
44588;SDS011;30298;52.562;13.414;2022-12-18T10:12:39;41.85;;;16.38;;
44588;SDS011;30298;52.562;13.414;2022-12-18T10:15:19;48.88;;;16.05;;
44588;SDS011;30298;52.562;13.414;2022-12-18T10:27:44;41.97;;;16.77;;
44588;SDS011;30298;52.562;13.414;2022-12-18T10:30:14;45.47;;;16.73;;
44588;SDS011;30298;52.562;13.414;2022-12-18T10:32:40;44.53;;;15.60;;
44588;SDS011;30298;52.562;13.414;2022-12-18T10:35:08;42.90;;;16.60;;
44588;SDS011;30298;52.562;13.414;2022-12-18T10:37:36;42.35;;;16.80;;
44588;SDS011;30298;52.562;13.414;2022-12-18T10:40:21;42.28;;;16.25;;
44588;SDS011;30298;52.562;13.414;2022-12-18T10:43:02;41.17;;;16.55;;
44588;SDS011;30298;52.562;13.414;2022-12-18T10:45:28;43.75;;;16.90;;
44588;SDS011;30298;52.562;13.414;2022-12-18T10:47:53;44.40;;;16.70;;
44588;SDS011;30298;52.562;13.414;2022-12-18T10:50:20;48.03;;;18.07;;
44588;SDS011;30298;52.562;13.414;2022-12-18T10:52:53;48.33;;;17.20;;
44588;SDS011;30298;52.562;13.414;2022-12-18T10:55:19;46.83;;;18.75;;
44588;SDS011;30298;52.562;13.414;2022-12-18T10:57:45;40.70;;;17.00;;
44588;SDS011;30298;52.562;13.414;2022-12-18T11:02:48;47.67;;;17.60;;
44588;SDS011;30298;52.562;13.414;2022-12-18T11:05:24;43.30;;;16.57;;
44588;SDS011;30298;52.562;13.414;2022-12-18T11:07:50;48.25;;;17.65;;
44588;SDS011;30298;52.562;13.414;2022-12-18T11:10:20;49.77;;;17.53;;
44588;SDS011;30298;52.562;13.414;2022-12-18T11:12:45;47.78;;;18.30;;
44588;SDS011;30298;52.562;13.414;2022-12-18T11:15:19;44.95;;;17.02;;
44588;SDS011;30298;52.562;13.414;2022-12-18T11:17:46;51.92;;;18.85;;
44588;SDS011;30298;52.562;13.414;2022-12-18T11:22:43;51.72;;;17.52;;
44588;SDS011;30298;52.562;13.414;2022-12-18T11:25:19;47.63;;;18.52;;
44588;SDS011;30298;52.562;13.414;2022-12-18T11:27:48;44.50;;;16.67;;
44588;SDS011;30298;52.562;13.414;2022-12-18T11:32:49;45.65;;;17.80;;
44588;SDS011;30298;52.562;13.414;2022-12-18T11:37:41;47.93;;;18.40;;
44588;SDS011;30298;52.562;13.414;2022-12-18T11:40:13;39.92;;;16.13;;
44588;SDS011;30298;52.562;13.414;2022-12-18T11:42:41;40.17;;;16.10;;
44588;SDS011;30298;52.562;13.414;2022-12-18T11:47:44;45.72;;;16.55;;
44588;SDS011;30298;52.562;13.414;2022-12-18T11:50:16;40.33;;;16.33;;
44588;SDS011;30298;52.562;13.414;2022-12-18T11:52:42;41.28;;;15.65;;
44588;SDS011;30298;52.562;13.414;2022-12-18T11:55:11;36.73;;;16.67;;
44588;SDS011;30298;52.562;13.414;2022-12-18T12:00:18;42.47;;;17.08;;
44588;SDS011;30298;52.562;13.414;2022-12-18T12:20:53;42.65;;;17.10;;
44588;SDS011;30298;52.562;13.414;2022-12-18T12:25:50;34.55;;;16.27;;
44588;SDS011;30298;52.562;13.414;2022-12-18T12:28:41;38.85;;;15.90;;
44588;SDS011;30298;52.562;13.414;2022-12-18T12:36:23;45.38;;;18.35;;
44588;SDS011;30298;52.562;13.414;2022-12-18T12:38:53;38.33;;;16.60;;
44588;SDS011;30298;52.562;13.414;2022-12-18T12:41:21;42.63;;;16.58;;
44588;SDS011;30298;52.562;13.414;2022-12-18T12:44:38;39.28;;;16.23;;
44588;SDS011;30298;52.562;13.414;2022-12-18T12:47:00;39.60;;;16.52;;
44588;SDS011;30298;52.562;13.414;2022-12-18T12:49:29;42.10;;;18.27;;
44588;SDS011;30298;52.562;13.414;2022-12-18T12:51:58;39.85;;;16.92;;
44588;SDS011;30298;52.562;13.414;2022-12-18T12:54:25;44.78;;;18.02;;
44588;SDS011;30298;52.562;13.414;2022-12-18T12:56:53;43.83;;;17.90;;
44588;SDS011;30298;52.562;13.414;2022-12-18T13:01:57;43.03;;;16.08;;
44588;SDS011;30298;52.562;13.414;2022-12-18T13:04:31;40.60;;;16.52;;
44588;SDS011;30298;52.562;13.414;2022-12-18T13:07:16;34.05;;;14.77;;
44588;SDS011;30298;52.562;13.414;2022-12-18T13:12:27;40.80;;;16.27;;
44588;SDS011;30298;52.562;13.414;2022-12-18T13:15:21;41.13;;;15.40;;
44588;SDS011;30298;52.562;13.414;2022-12-18T13:17:46;35.28;;;16.52;;
44588;SDS011;30298;52.562;13.414;2022-12-18T13:20:12;33.73;;;15.17;;
44588;SDS011;30298;52.562;13.414;2022-12-18T13:22:40;40.33;;;15.25;;
44588;SDS011;30298;52.562;13.414;2022-12-18T13:27:55;34.35;;;15.25;;
44588;SDS011;30298;52.562;13.414;2022-12-18T13:38:23;39.20;;;14.93;;
44588;SDS011;30298;52.562;13.414;2022-12-18T13:45:48;42.92;;;16.80;;
44588;SDS011;30298;52.562;13.414;2022-12-18T13:48:18;34.60;;;14.88;;
44588;SDS011;30298;52.562;13.414;2022-12-18T13:50:48;34.17;;;15.52;;
44588;SDS011;30298;52.562;13.414;2022-12-18T13:53:20;30.73;;;13.98;;
44588;SDS011;30298;52.562;13.414;2022-12-18T13:55:46;34.97;;;15.75;;
44588;SDS011;30298;52.562;13.414;2022-12-18T13:58:11;34.42;;;16.02;;
44588;SDS011;30298;52.562;13.414;2022-12-18T14:00:40;34.77;;;15.27;;
44588;SDS011;30298;52.562;13.414;2022-12-18T14:03:16;34.78;;;16.05;;
44588;SDS011;30298;52.562;13.414;2022-12-18T14:05:42;38.97;;;15.57;;
44588;SDS011;30298;52.562;13.414;2022-12-18T14:08:12;35.55;;;15.02;;
44588;SDS011;30298;52.562;13.414;2022-12-18T14:10:41;38.08;;;15.55;;
44588;SDS011;30298;52.562;13.414;2022-12-18T14:13:08;39.47;;;17.33;;
44588;SDS011;30298;52.562;13.414;2022-12-18T14:15:41;37.75;;;15.75;;
44588;SDS011;30298;52.562;13.414;2022-12-18T14:18:13;38.95;;;16.73;;
44588;SDS011;30298;52.562;13.414;2022-12-18T14:20:45;38.05;;;16.42;;
44588;SDS011;30298;52.562;13.414;2022-12-18T14:23:32;39.30;;;17.55;;
44588;SDS011;30298;52.562;13.414;2022-12-18T14:25:58;37.05;;;16.60;;
44588;SDS011;30298;52.562;13.414;2022-12-18T14:28:23;38.30;;;17.77;;
44588;SDS011;30298;52.562;13.414;2022-12-18T14:30:49;33.93;;;16.07;;
44588;SDS011;30298;52.562;13.414;2022-12-18T14:33:18;38.60;;;18.40;;
44588;SDS011;30298;52.562;13.414;2022-12-18T14:38:32;37.80;;;16.00;;
44588;SDS011;30298;52.562;13.414;2022-12-18T14:43:23;33.10;;;15.07;;
44588;SDS011;30298;52.562;13.414;2022-12-18T14:45:49;36.67;;;16.75;;
44588;SDS011;30298;52.562;13.414;2022-12-18T14:48:19;35.67;;;14.55;;
44588;SDS011;30298;52.562;13.414;2022-12-18T14:50:44;33.63;;;15.80;;
44588;SDS011;30298;52.562;13.414;2022-12-18T14:53:20;29.63;;;16.00;;
44588;SDS011;30298;52.562;13.414;2022-12-18T14:55:47;28.13;;;14.30;;
44588;SDS011;30298;52.562;13.414;2022-12-18T14:58:13;30.15;;;14.45;;
44588;SDS011;30298;52.562;13.414;2022-12-18T15:00:41;28.50;;;14.52;;
44588;SDS011;30298;52.562;13.414;2022-12-18T15:03:07;31.85;;;15.00;;
44588;SDS011;30298;52.562;13.414;2022-12-18T15:05:32;30.08;;;14.98;;
44588;SDS011;30298;52.562;13.414;2022-12-18T15:07:59;32.97;;;15.77;;
44588;SDS011;30298;52.562;13.414;2022-12-18T15:12:50;28.92;;;14.00;;
44588;SDS011;30298;52.562;13.414;2022-12-18T15:17:59;28.48;;;14.55;;
44588;SDS011;30298;52.562;13.414;2022-12-18T15:20:25;29.75;;;14.45;;
44588;SDS011;30298;52.562;13.414;2022-12-18T15:22:50;29.50;;;12.93;;
44588;SDS011;30298;52.562;13.414;2022-12-18T15:25:37;28.37;;;14.67;;
44588;SDS011;30298;52.562;13.414;2022-12-18T15:28:02;32.35;;;15.25;;
44588;SDS011;30298;52.562;13.414;2022-12-18T15:30:27;29.35;;;14.68;;
44588;SDS011;30298;52.562;13.414;2022-12-18T15:33:16;32.23;;;15.60;;
44588;SDS011;30298;52.562;13.414;2022-12-18T15:35:38;33.38;;;14.50;;
44588;SDS011;30298;52.562;13.414;2022-12-18T15:38:03;31.77;;;16.23;;
44588;SDS011;30298;52.562;13.414;2022-12-18T15:40:29;36.80;;;16.23;;
44588;SDS011;30298;52.562;13.414;2022-12-18T15:42:54;30.27;;;14.57;;
44588;SDS011;30298;52.562;13.414;2022-12-18T15:45:38;30.48;;;14.75;;
44588;SDS011;30298;52.562;13.414;2022-12-18T15:48:14;29.08;;;14.48;;
44588;SDS011;30298;52.562;13.414;2022-12-18T15:50:42;33.50;;;15.05;;
44588;SDS011;30298;52.562;13.414;2022-12-18T15:53:07;28.13;;;13.07;;
44588;SDS011;30298;52.562;13.414;2022-12-18T15:55:33;26.50;;;12.73;;
44588;SDS011;30298;52.562;13.414;2022-12-18T15:58:17;30.33;;;14.48;;
44588;SDS011;30298;52.562;13.414;2022-12-18T16:00:46;26.03;;;13.00;;
44588;SDS011;30298;52.562;13.414;2022-12-18T16:03:11;31.33;;;14.57;;
44588;SDS011;30298;52.562;13.414;2022-12-18T16:05:37;26.23;;;12.93;;
44588;SDS011;30298;52.562;13.414;2022-12-18T16:08:02;30.40;;;15.20;;
44588;SDS011;30298;52.562;13.414;2022-12-18T16:10:27;29.02;;;14.40;;
44588;SDS011;30298;52.562;13.414;2022-12-18T16:12:53;33.72;;;14.30;;